createdAt,value
2023-05-20T00:00:24.373Z,0.00
2023-05-20T00:01:24.341Z,0.00
2023-05-20T00:02:24.517Z,0.00
2023-05-20T00:03:24.387Z,0.00
2023-05-20T00:04:24.308Z,0.00
2023-05-20T00:05:24.249Z,0.00
2023-05-20T00:06:24.231Z,0.00
2023-05-20T00:07:24.207Z,0.00
2023-05-20T00:08:24.181Z,0.00
2023-05-20T00:09:24.161Z,0.00
2023-05-20T00:10:24.134Z,0.00
2023-05-20T00:11:24.103Z,0.00
2023-05-20T00:12:24.085Z,0.00
2023-05-20T00:13:24.053Z,0.00
2023-05-20T00:14:24.038Z,0.00
2023-05-20T00:15:24.028Z,0.00
2023-05-20T00:16:24.048Z,0.00
2023-05-20T00:17:23.973Z,0.00
2023-05-20T00:18:23.935Z,0.00
2023-05-20T00:19:24.008Z,0.00
2023-05-20T00:20:23.896Z,0.00
2023-05-20T00:21:23.877Z,0.00
2023-05-20T00:22:23.845Z,0.00
2023-05-20T00:23:23.817Z,0.00
2023-05-20T00:24:23.789Z,0.00
2023-05-20T00:25:24.617Z,0.00
2023-05-20T00:26:23.741Z,0.00
2023-05-20T00:27:23.718Z,0.00
2023-05-20T00:28:23.718Z,0.00
2023-05-20T00:29:23.675Z,0.00
2023-05-20T00:30:23.640Z,0.00
2023-05-20T00:31:23.634Z,0.00
2023-05-20T00:32:23.712Z,0.00
2023-05-20T00:33:23.575Z,0.00
2023-05-20T00:34:23.548Z,0.00
2023-05-20T00:35:23.532Z,0.00
2023-05-20T00:36:23.505Z,0.00
2023-05-20T00:37:23.552Z,0.00
2023-05-20T00:38:23.450Z,0.00
2023-05-20T00:39:23.433Z,0.00
2023-05-20T00:40:24.181Z,0.00
2023-05-20T00:41:23.381Z,0.00
2023-05-20T00:42:23.352Z,0.00
2023-05-20T00:43:23.333Z,0.00
2023-05-20T00:44:23.301Z,0.00
2023-05-20T00:45:23.284Z,0.00
2023-05-20T00:46:23.295Z,0.00
2023-05-20T00:47:23.234Z,0.00
2023-05-20T00:48:23.209Z,0.00
2023-05-20T00:49:23.194Z,0.00
2023-05-20T00:50:23.161Z,0.00
2023-05-20T00:51:23.141Z,0.00
2023-05-20T00:52:23.123Z,0.00
2023-05-20T00:53:23.088Z,0.00
2023-05-20T00:54:23.060Z,0.00
2023-05-20T00:55:23.042Z,0.00
2023-05-20T00:56:23.010Z,0.00
2023-05-20T00:57:22.998Z,0.00
2023-05-20T00:58:22.969Z,0.00
2023-05-20T00:59:22.945Z,0.00
2023-05-20T01:00:22.916Z,0.00
2023-05-20T01:01:22.943Z,0.00
2023-05-20T01:02:23.017Z,0.00
2023-05-20T01:03:23.058Z,0.00
2023-05-20T01:04:22.816Z,0.00
2023-05-20T01:05:22.797Z,0.00
2023-05-20T01:06:22.762Z,0.00
2023-05-20T01:07:22.760Z,0.00
2023-05-20T01:08:22.761Z,0.00
2023-05-20T01:09:22.695Z,0.00
2023-05-20T01:10:22.671Z,0.00
2023-05-20T01:11:22.651Z,0.00
2023-05-20T01:12:22.631Z,0.00
2023-05-20T01:13:22.599Z,0.00
2023-05-20T01:14:22.572Z,0.00
2023-05-20T01:15:22.553Z,0.00
2023-05-20T01:16:22.573Z,0.00
2023-05-20T01:17:22.502Z,0.00
2023-05-20T01:18:22.480Z,0.00
2023-05-20T01:19:22.562Z,0.00
2023-05-20T01:20:22.422Z,0.00
2023-05-20T01:21:22.402Z,0.00
2023-05-20T01:22:22.376Z,0.00
2023-05-20T01:23:22.359Z,0.00
2023-05-20T01:24:22.340Z,0.00
2023-05-20T01:25:22.309Z,0.00
2023-05-20T01:26:22.278Z,0.00
2023-05-20T01:27:22.258Z,0.00
2023-05-20T01:28:22.235Z,0.00
2023-05-20T01:29:22.214Z,0.00
2023-05-20T01:30:22.210Z,0.00
2023-05-20T01:31:22.224Z,0.00
2023-05-20T01:32:22.135Z,0.00
2023-05-20T01:33:22.118Z,0.00
2023-05-20T01:34:22.083Z,0.00
2023-05-20T01:35:22.063Z,0.00
2023-05-20T01:36:22.035Z,0.00
2023-05-20T01:37:22.024Z,0.00
2023-05-20T01:38:21.983Z,0.00
2023-05-20T01:39:21.978Z,0.00
2023-05-20T01:40:21.951Z,0.00
2023-05-20T01:41:21.918Z,0.00
2023-05-20T01:42:21.887Z,0.00
2023-05-20T01:43:21.889Z,0.00
2023-05-20T01:44:21.836Z,0.00
2023-05-20T01:45:21.819Z,0.00
2023-05-20T01:46:21.811Z,0.00
2023-05-20T01:47:21.773Z,0.00
2023-05-20T01:48:21.741Z,0.00
2023-05-20T01:49:21.729Z,0.00
2023-05-20T01:50:21.700Z,0.00
2023-05-20T01:51:21.681Z,0.00
2023-05-20T01:52:21.661Z,0.00
2023-05-20T01:53:21.638Z,0.00
2023-05-20T01:54:21.600Z,0.00
2023-05-20T01:55:21.580Z,0.00
2023-05-20T01:56:21.556Z,0.00
2023-05-20T01:57:21.527Z,0.00
2023-05-20T01:58:21.492Z,0.00
2023-05-20T01:59:21.480Z,0.00
2023-05-20T02:00:21.450Z,0.00
2023-05-20T02:01:21.559Z,0.00
2023-05-20T02:02:21.443Z,0.00
2023-05-20T02:03:21.428Z,0.00
2023-05-20T02:04:21.356Z,0.00
2023-05-20T02:05:21.351Z,0.00
2023-05-20T02:06:21.316Z,0.00
2023-05-20T02:07:21.332Z,0.00
2023-05-20T02:08:21.250Z,0.00
2023-05-20T02:09:21.237Z,0.00
2023-05-20T02:10:21.213Z,0.00
2023-05-20T02:11:21.187Z,0.00
2023-05-20T02:12:21.154Z,0.00
2023-05-20T02:13:21.150Z,0.00
2023-05-20T02:14:21.113Z,0.00
2023-05-20T02:15:21.095Z,0.00
2023-05-20T02:16:21.082Z,0.00
2023-05-20T02:17:21.040Z,0.00
2023-05-20T02:18:21.018Z,0.00
2023-05-20T02:19:21.004Z,0.00
2023-05-20T02:20:20.963Z,0.00
2023-05-20T02:21:20.943Z,0.00
2023-05-20T02:22:20.925Z,0.00
2023-05-20T02:23:20.922Z,0.00
2023-05-20T02:24:20.870Z,0.00
2023-05-20T02:25:20.844Z,0.00
2023-05-20T02:26:20.830Z,0.00
2023-05-20T02:27:20.806Z,0.00
2023-05-20T02:28:20.775Z,0.00
2023-05-20T02:29:20.748Z,0.00
2023-05-20T02:30:20.723Z,0.00
2023-05-20T02:31:20.701Z,0.00
2023-05-20T02:32:20.671Z,0.00
2023-05-20T02:33:20.670Z,0.00
2023-05-20T02:34:20.674Z,0.00
2023-05-20T02:35:20.603Z,0.00
2023-05-20T02:36:20.577Z,0.00
2023-05-20T02:37:20.555Z,0.00
2023-05-20T02:38:20.526Z,0.00
2023-05-20T02:39:20.510Z,0.00
2023-05-20T02:40:20.476Z,0.00
2023-05-20T02:41:20.456Z,0.00
2023-05-20T02:42:20.432Z,0.00
2023-05-20T02:43:20.408Z,0.00
2023-05-20T02:44:20.385Z,0.00
2023-05-20T02:45:20.357Z,0.00
2023-05-20T02:46:20.384Z,0.00
2023-05-20T02:47:20.312Z,0.00
2023-05-20T02:48:20.282Z,0.00
2023-05-20T02:49:20.263Z,0.00
2023-05-20T02:50:20.233Z,0.00
2023-05-20T02:51:20.211Z,0.00
2023-05-20T02:52:20.182Z,0.00
2023-05-20T02:53:20.163Z,0.00
2023-05-20T02:54:20.133Z,0.00
2023-05-20T02:55:20.115Z,0.00
2023-05-20T02:56:20.085Z,0.00
2023-05-20T02:57:20.062Z,0.00
2023-05-20T02:58:20.038Z,0.00
2023-05-20T02:59:20.037Z,0.00
2023-05-20T03:00:20.007Z,4.00
2023-05-20T03:01:20.009Z,4.00
2023-05-20T03:02:19.934Z,4.00
2023-05-20T03:03:19.916Z,0.00
2023-05-20T03:04:19.970Z,4.00
2023-05-20T03:05:19.874Z,4.00
2023-05-20T03:06:19.859Z,4.00
2023-05-20T03:07:20.668Z,4.00
2023-05-20T03:08:19.791Z,8.00
2023-05-20T03:09:19.783Z,8.00
2023-05-20T03:10:19.747Z,8.00
2023-05-20T03:11:19.721Z,12.00
2023-05-20T03:12:19.698Z,12.00
2023-05-20T03:13:19.682Z,12.00
2023-05-20T03:14:19.650Z,16.00
2023-05-20T03:15:19.624Z,16.00
2023-05-20T03:16:19.634Z,20.00
2023-05-20T03:17:19.611Z,20.00
2023-05-20T03:18:19.549Z,24.00
2023-05-20T03:19:19.586Z,28.00
2023-05-20T03:20:19.500Z,36.00
2023-05-20T03:21:19.478Z,40.00
2023-05-20T03:22:19.454Z,40.00
2023-05-20T03:23:19.434Z,44.00
2023-05-20T03:24:19.427Z,52.00
2023-05-20T03:25:19.383Z,56.00
2023-05-20T03:26:19.362Z,60.00
2023-05-20T03:27:19.341Z,68.00
2023-05-20T03:28:19.318Z,72.00
2023-05-20T03:29:19.288Z,76.00
2023-05-20T03:30:19.271Z,80.00
2023-05-20T03:31:19.303Z,88.00
2023-05-20T03:32:19.253Z,100.00
2023-05-20T03:33:19.193Z,104.00
2023-05-20T03:34:19.162Z,116.00
2023-05-20T03:35:19.150Z,124.00
2023-05-20T03:36:19.117Z,136.00
2023-05-20T03:37:19.098Z,148.00
2023-05-20T03:38:19.069Z,160.00
2023-05-20T03:39:19.050Z,176.00
2023-05-20T03:40:19.026Z,188.00
2023-05-20T03:41:19.002Z,200.00
2023-05-20T03:42:18.974Z,216.00
2023-05-20T03:43:18.954Z,236.00
2023-05-20T03:44:18.942Z,256.00
2023-05-20T03:45:18.923Z,272.00
2023-05-20T03:46:18.972Z,292.00
2023-05-20T03:47:18.858Z,308.00
2023-05-20T03:48:18.829Z,324.00
2023-05-20T03:49:18.805Z,340.00
2023-05-20T03:50:18.780Z,352.00
2023-05-20T03:51:18.763Z,364.00
2023-05-20T03:52:18.737Z,384.00
2023-05-20T03:53:18.711Z,404.00
2023-05-20T03:54:18.680Z,416.00
2023-05-20T03:55:18.666Z,428.00
2023-05-20T03:56:18.639Z,436.00
2023-05-20T03:57:18.614Z,444.00
2023-05-20T03:58:18.596Z,452.00
2023-05-20T03:59:18.576Z,464.00
2023-05-20T04:00:18.545Z,480.00
2023-05-20T04:01:18.543Z,504.00
2023-05-20T04:02:18.547Z,528.00
2023-05-20T04:03:18.556Z,556.00
2023-05-20T04:04:18.471Z,580.00
2023-05-20T04:05:18.428Z,592.00
2023-05-20T04:06:18.400Z,608.00
2023-05-20T04:07:18.406Z,612.00
2023-05-20T04:08:18.353Z,620.00
2023-05-20T04:09:18.337Z,632.00
2023-05-20T04:10:18.304Z,648.00
2023-05-20T04:11:18.297Z,660.00
2023-05-20T04:12:18.275Z,680.00
2023-05-20T04:13:18.247Z,692.00
2023-05-20T04:14:18.211Z,708.00
2023-05-20T04:15:18.202Z,736.00
2023-05-20T04:16:18.266Z,768.00
2023-05-20T04:17:18.147Z,816.00
2023-05-20T04:18:18.121Z,872.00
2023-05-20T04:19:18.289Z,936.00
2023-05-20T04:20:18.072Z,1016.00
2023-05-20T04:21:18.685Z,1088.00
2023-05-20T04:22:18.030Z,1152.00
2023-05-20T04:23:18.011Z,1220.00
2023-05-20T04:24:17.985Z,1288.00
2023-05-20T04:25:17.965Z,1356.00
2023-05-20T04:26:17.934Z,1408.00
2023-05-20T04:27:17.913Z,1460.00
2023-05-20T04:28:17.890Z,1496.00
2023-05-20T04:29:17.868Z,1532.00
2023-05-20T04:30:17.844Z,1568.00
2023-05-20T04:31:17.841Z,1584.00
2023-05-20T04:32:17.795Z,1612.00
2023-05-20T04:33:17.789Z,1644.00
2023-05-20T04:34:17.757Z,1684.00
2023-05-20T04:35:17.733Z,1736.00
2023-05-20T04:36:17.730Z,1780.00
2023-05-20T04:37:17.675Z,1824.00
2023-05-20T04:38:17.667Z,1864.00
2023-05-20T04:39:17.644Z,1904.00
2023-05-20T04:40:17.621Z,1924.00
2023-05-20T04:41:17.589Z,1960.00
2023-05-20T04:42:17.593Z,2004.00
2023-05-20T04:43:17.544Z,2036.00
2023-05-20T04:44:17.520Z,2072.00
2023-05-20T04:45:17.517Z,2124.00
2023-05-20T04:46:17.548Z,2176.00
2023-05-20T04:47:17.451Z,2208.00
2023-05-20T04:48:17.431Z,2228.00
2023-05-20T04:49:17.408Z,2244.00
2023-05-20T04:50:17.384Z,2260.00
2023-05-20T04:51:17.370Z,2296.00
2023-05-20T04:52:17.375Z,2348.00
2023-05-20T04:53:17.338Z,2400.00
2023-05-20T04:54:17.297Z,2456.00
2023-05-20T04:55:17.270Z,2528.00
2023-05-20T04:56:17.247Z,2592.00
2023-05-20T04:57:17.225Z,2672.00
2023-05-20T04:58:17.200Z,2768.00
2023-05-20T04:59:17.199Z,2824.00
2023-05-20T05:00:17.163Z,2860.00
2023-05-20T05:01:17.131Z,2904.00
2023-05-20T05:02:17.115Z,2956.00
2023-05-20T05:03:17.110Z,3040.00
2023-05-20T05:04:17.162Z,3096.00
2023-05-20T05:05:17.037Z,3120.00
2023-05-20T05:06:17.025Z,3116.00
2023-05-20T05:07:17.012Z,3080.00
2023-05-20T05:08:16.987Z,3028.00
2023-05-20T05:09:16.982Z,2992.00
2023-05-20T05:10:16.930Z,2964.00
2023-05-20T05:11:16.918Z,2932.00
2023-05-20T05:12:16.897Z,2896.00
2023-05-20T05:13:16.920Z,2824.00
2023-05-20T05:14:16.851Z,2784.00
2023-05-20T05:15:16.818Z,2780.00
2023-05-20T05:16:16.811Z,2804.00
2023-05-20T05:17:16.774Z,2840.00
2023-05-20T05:18:16.750Z,2868.00
2023-05-20T05:19:16.762Z,2904.00
2023-05-20T05:20:16.705Z,2944.00
2023-05-20T05:21:16.710Z,2976.00
2023-05-20T05:22:16.661Z,3008.00
2023-05-20T05:23:16.631Z,3028.00
2023-05-20T05:24:16.623Z,3036.00
2023-05-20T05:25:16.600Z,3064.00
2023-05-20T05:26:16.578Z,3140.00
2023-05-20T05:27:16.549Z,3264.00
2023-05-20T05:28:16.532Z,3416.00
2023-05-20T05:29:16.555Z,3552.00
2023-05-20T05:30:16.490Z,3712.00
2023-05-20T05:31:16.451Z,3856.00
2023-05-20T05:32:16.479Z,3972.00
2023-05-20T05:33:16.458Z,4100.00
2023-05-20T05:34:16.401Z,4348.00
2023-05-20T05:35:16.378Z,4732.00
2023-05-20T05:36:16.339Z,5164.00
2023-05-20T05:37:16.324Z,5596.00
2023-05-20T05:38:16.308Z,5940.00
2023-05-20T05:39:16.285Z,6256.00
2023-05-20T05:40:16.269Z,6660.00
2023-05-20T05:41:16.249Z,6924.00
2023-05-20T05:42:16.218Z,6980.00
2023-05-20T05:43:16.216Z,7028.00
2023-05-20T05:44:16.198Z,6996.00
2023-05-20T05:45:16.159Z,6928.00
2023-05-20T05:46:16.291Z,6840.00
2023-05-20T05:47:16.146Z,6816.00
2023-05-20T05:48:16.085Z,6824.00
2023-05-20T05:49:16.059Z,6796.00
2023-05-20T05:50:16.050Z,6756.00
2023-05-20T05:51:16.013Z,6680.00
2023-05-20T05:52:16.000Z,6560.00
2023-05-20T05:53:15.978Z,6512.00
2023-05-20T05:54:15.955Z,6424.00
2023-05-20T05:55:15.944Z,6428.00
2023-05-20T05:56:15.922Z,6532.00
2023-05-20T05:57:15.891Z,6612.00
2023-05-20T05:58:15.881Z,6676.00
2023-05-20T05:59:15.851Z,6728.00
2023-05-20T06:00:15.835Z,6768.00
2023-05-20T06:01:15.839Z,6796.00
2023-05-20T06:02:15.897Z,6700.00
2023-05-20T06:03:16.033Z,6528.00
2023-05-20T06:04:15.771Z,6352.00
2023-05-20T06:05:15.760Z,6196.00
2023-05-20T06:06:15.883Z,6124.00
2023-05-20T06:07:15.700Z,6104.00
2023-05-20T06:08:15.666Z,6144.00
2023-05-20T06:09:15.644Z,6212.00
2023-05-20T06:10:15.631Z,6356.00
2023-05-20T06:11:15.614Z,6476.00
2023-05-20T06:12:15.592Z,6556.00
2023-05-20T06:13:15.585Z,6480.00
2023-05-20T06:14:15.556Z,6360.00
2023-05-20T06:15:15.537Z,6268.00
2023-05-20T06:16:15.547Z,6196.00
2023-05-20T06:17:15.499Z,6188.00
2023-05-20T06:18:15.472Z,6140.00
2023-05-20T06:19:15.454Z,6080.00
2023-05-20T06:20:15.433Z,6076.00
2023-05-20T06:21:15.405Z,6076.00
2023-05-20T06:22:15.397Z,6064.00
2023-05-20T06:23:15.368Z,6072.00
2023-05-20T06:24:15.392Z,6156.00
2023-05-20T06:25:15.345Z,6324.00
2023-05-20T06:26:15.330Z,6556.00
2023-05-20T06:27:15.289Z,6732.00
2023-05-20T06:28:15.350Z,6872.00
2023-05-20T06:29:15.251Z,7044.00
2023-05-20T06:30:15.238Z,7284.00
2023-05-20T06:31:15.235Z,7528.00
2023-05-20T06:32:15.200Z,7696.00
2023-05-20T06:33:15.177Z,7844.00
2023-05-20T06:34:15.165Z,8016.00
2023-05-20T06:35:15.139Z,8192.00
2023-05-20T06:36:15.138Z,8488.00
2023-05-20T06:37:15.115Z,8964.00
2023-05-20T06:38:15.148Z,9512.00
2023-05-20T06:39:15.067Z,10040.00
2023-05-20T06:40:15.072Z,10608.00
2023-05-20T06:41:15.035Z,11212.00
2023-05-20T06:42:15.020Z,11716.00
2023-05-20T06:43:14.997Z,12212.00
2023-05-20T06:44:14.979Z,12708.00
2023-05-20T06:45:14.960Z,13092.00
2023-05-20T06:46:14.965Z,13216.00
2023-05-20T06:47:14.919Z,13256.00
2023-05-20T06:48:14.909Z,13396.00
2023-05-20T06:49:14.883Z,13748.00
2023-05-20T06:50:14.869Z,14392.00
2023-05-20T06:51:14.850Z,14496.00
2023-05-20T06:52:14.832Z,14348.00
2023-05-20T06:53:14.831Z,14136.00
2023-05-20T06:54:14.815Z,13712.00
2023-05-20T06:55:14.792Z,13408.00
2023-05-20T06:56:14.761Z,13324.00
2023-05-20T06:57:14.762Z,13216.00
2023-05-20T06:58:14.736Z,12960.00
2023-05-20T06:59:14.719Z,12752.00
2023-05-20T07:00:14.703Z,12848.00
2023-05-20T07:01:16.577Z,13152.00
2023-05-20T07:02:14.837Z,13652.00
2023-05-20T07:03:14.652Z,13708.00
2023-05-20T07:04:14.709Z,13280.00
2023-05-20T07:05:14.614Z,12596.00
2023-05-20T07:06:14.601Z,12100.00
2023-05-20T07:07:17.170Z,11892.00
2023-05-20T07:08:14.579Z,11912.00
2023-05-20T07:09:14.551Z,11920.00
2023-05-20T07:10:14.527Z,11920.00
2023-05-20T07:11:14.507Z,11868.00
2023-05-20T07:12:14.504Z,11432.00
2023-05-20T07:13:14.484Z,10712.00
2023-05-20T07:14:14.464Z,10588.00
2023-05-20T07:15:14.455Z,10780.00
2023-05-20T07:16:14.496Z,11228.00
2023-05-20T07:17:14.433Z,11140.00
2023-05-20T07:18:14.455Z,11264.00
2023-05-20T07:19:14.438Z,11012.00
2023-05-20T07:20:14.372Z,8992.00
2023-05-20T07:21:14.353Z,9916.00
2023-05-20T07:22:14.336Z,8980.00
2023-05-20T07:23:15.747Z,9012.00
2023-05-20T07:24:14.318Z,10340.00
2023-05-20T07:25:14.285Z,8316.00
2023-05-20T07:26:14.277Z,7624.00
2023-05-20T07:27:14.267Z,7500.00
2023-05-20T07:28:14.251Z,8716.00
2023-05-20T07:29:14.219Z,9760.00
2023-05-20T07:30:14.206Z,8752.00
2023-05-20T07:31:14.232Z,9972.00
2023-05-20T07:32:14.187Z,11300.00
2023-05-20T07:33:14.161Z,11172.00
2023-05-20T07:34:14.161Z,12956.00
2023-05-20T07:35:14.133Z,12976.00
2023-05-20T07:36:14.105Z,12104.00
2023-05-20T07:37:14.093Z,13780.00
2023-05-20T07:38:14.763Z,13212.00
2023-05-20T07:39:15.217Z,12272.00
2023-05-20T07:40:14.046Z,11996.00
2023-05-20T07:41:14.032Z,11252.00
2023-05-20T07:42:14.030Z,11000.00
2023-05-20T07:43:13.998Z,11532.00
2023-05-20T07:44:13.990Z,10548.00
2023-05-20T07:45:13.959Z,10348.00
2023-05-20T07:46:14.012Z,9280.00
2023-05-20T07:47:13.930Z,9660.00
2023-05-20T07:48:13.966Z,12196.00
2023-05-20T07:49:13.903Z,12196.00
2023-05-20T07:50:13.888Z,10796.00
2023-05-20T07:51:13.870Z,10268.00
2023-05-20T07:52:13.860Z,9952.00
2023-05-20T07:53:13.842Z,9464.00
2023-05-20T07:54:13.825Z,10472.00
2023-05-20T07:55:13.822Z,10960.00
2023-05-20T07:56:13.803Z,13040.00
2023-05-20T07:57:13.767Z,14660.00
2023-05-20T07:58:13.765Z,15176.00
2023-05-20T07:59:13.745Z,12860.00
2023-05-20T08:00:13.720Z,13164.00
2023-05-20T08:01:13.724Z,14032.00
2023-05-20T08:02:13.722Z,13904.00
2023-05-20T08:03:13.815Z,14424.00
2023-05-20T08:04:13.874Z,15900.00
2023-05-20T08:05:13.644Z,14928.00
2023-05-20T08:06:13.624Z,15708.00
2023-05-20T08:07:13.608Z,15776.00
2023-05-20T08:08:13.594Z,15056.00
2023-05-20T08:09:13.575Z,15164.00
2023-05-20T08:10:13.571Z,14040.00
2023-05-20T08:11:13.540Z,15156.00
2023-05-20T08:12:13.725Z,15116.00
2023-05-20T08:13:13.514Z,16700.00
2023-05-20T08:14:13.497Z,18752.00
2023-05-20T08:15:13.473Z,18944.00
2023-05-20T08:16:13.507Z,16872.00
2023-05-20T08:17:13.707Z,14756.00
2023-05-20T08:18:13.523Z,14960.00
2023-05-20T08:19:13.456Z,18624.00
2023-05-20T08:20:13.459Z,17792.00
2023-05-20T08:21:13.380Z,15380.00
2023-05-20T08:22:13.380Z,14652.00
2023-05-20T08:23:13.368Z,17888.00
2023-05-20T08:24:13.352Z,19232.00
2023-05-20T08:25:13.317Z,20192.00
2023-05-20T08:26:13.314Z,19680.00
2023-05-20T08:27:13.300Z,18528.00
2023-05-20T08:28:13.776Z,18016.00
2023-05-20T08:29:13.262Z,19552.00
2023-05-20T08:30:13.248Z,20256.00
2023-05-20T08:31:13.314Z,20672.00
2023-05-20T08:32:13.237Z,21472.00
2023-05-20T08:33:13.292Z,19136.00
2023-05-20T08:34:13.189Z,17056.00
2023-05-20T08:35:13.202Z,19424.00
2023-05-20T08:36:13.197Z,19232.00
2023-05-20T08:37:13.144Z,19424.00
2023-05-20T08:38:13.166Z,22976.00
2023-05-20T08:39:13.163Z,21984.00
2023-05-20T08:40:13.121Z,22496.00
2023-05-20T08:41:13.088Z,20640.00
2023-05-20T08:42:13.116Z,19552.00
2023-05-20T08:43:13.129Z,19776.00
2023-05-20T08:44:13.061Z,24800.00
2023-05-20T08:45:13.041Z,18720.00
2023-05-20T08:46:13.066Z,18368.00
2023-05-20T08:47:13.023Z,25504.00
2023-05-20T08:48:13.072Z,27040.00
2023-05-20T08:49:12.993Z,15976.00
2023-05-20T08:50:12.981Z,17188.00
2023-05-20T08:51:12.988Z,25152.00
2023-05-20T08:52:12.959Z,15512.00
2023-05-20T08:53:12.988Z,12120.00
2023-05-20T08:54:12.935Z,14068.00
2023-05-20T08:55:12.920Z,28448.00
2023-05-20T08:56:12.929Z,13092.00
2023-05-20T08:57:12.892Z,10916.00
2023-05-20T08:58:12.869Z,11708.00
2023-05-20T08:59:12.887Z,15072.00
2023-05-20T09:00:12.839Z,12556.00
2023-05-20T09:01:12.850Z,12548.00
2023-05-20T09:02:12.959Z,16376.00
2023-05-20T09:03:12.854Z,41920.00
2023-05-20T09:04:12.851Z,48224.00
2023-05-20T09:05:12.803Z,17776.00
2023-05-20T09:06:12.786Z,9724.00
2023-05-20T09:07:12.746Z,9668.00
2023-05-20T09:08:12.770Z,12704.00
2023-05-20T09:09:12.719Z,15220.00
2023-05-20T09:10:12.719Z,51840.00
2023-05-20T09:11:12.722Z,38432.00
2023-05-20T09:12:12.672Z,21632.00
2023-05-20T09:13:12.698Z,32352.00
2023-05-20T09:14:12.717Z,69632.00
2023-05-20T09:15:12.640Z,31424.00
2023-05-20T09:16:12.650Z,75552.00
2023-05-20T09:17:12.648Z,66144.00
2023-05-20T09:18:12.609Z,68896.00
2023-05-20T09:19:12.628Z,21888.00
2023-05-20T09:20:12.581Z,17408.00
2023-05-20T09:21:12.580Z,18336.00
2023-05-20T09:22:12.551Z,85632.00
2023-05-20T09:23:12.542Z,33920.00
2023-05-20T09:24:12.528Z,47200.00
2023-05-20T09:25:12.511Z,39392.00
2023-05-20T09:26:12.546Z,77664.00
2023-05-20T09:27:12.469Z,79232.00
2023-05-20T09:28:12.452Z,94048.00
2023-05-20T09:29:12.429Z,54176.00
2023-05-20T09:30:12.465Z,71616.00
2023-05-20T09:31:12.434Z,29568.00
2023-05-20T09:32:12.461Z,27360.00
2023-05-20T09:33:12.382Z,43936.00
2023-05-20T09:34:12.375Z,38432.00
2023-05-20T09:35:12.409Z,95328.00
2023-05-20T09:36:13.120Z,26368.00
2023-05-20T09:37:12.330Z,25376.00
2023-05-20T09:38:12.330Z,36384.00
2023-05-20T09:39:12.321Z,71360.00
2023-05-20T09:40:12.298Z,101152.00
2023-05-20T09:41:12.684Z,88704.00
2023-05-20T09:42:12.313Z,77216.00
2023-05-20T09:43:12.266Z,19232.00
2023-05-20T09:44:12.334Z,40384.00
2023-05-20T09:45:12.331Z,25568.00
2023-05-20T09:46:12.287Z,19840.00
2023-05-20T09:47:12.261Z,36768.00
2023-05-20T09:48:12.252Z,95296.00
2023-05-20T09:49:12.184Z,29376.00
2023-05-20T09:50:12.176Z,45632.00
2023-05-20T09:51:12.209Z,26560.00
2023-05-20T09:52:12.226Z,51680.00
2023-05-20T09:53:12.167Z,101856.00
2023-05-20T09:54:12.200Z,103072.00
2023-05-20T09:55:12.168Z,21568.00
2023-05-20T09:56:12.108Z,22304.00
2023-05-20T09:57:12.107Z,29760.00
2023-05-20T09:58:13.232Z,40960.00
2023-05-20T09:59:12.093Z,88352.00
2023-05-20T10:00:12.149Z,93088.00
2023-05-20T10:01:12.143Z,90976.00
2023-05-20T10:02:12.103Z,89440.00
2023-05-20T10:03:12.099Z,92480.00
2023-05-20T10:04:12.055Z,94880.00
2023-05-20T10:05:12.840Z,91776.00
2023-05-20T10:06:11.998Z,91168.00
2023-05-20T10:07:12.020Z,92896.00
2023-05-20T10:08:12.017Z,94176.00
2023-05-20T10:09:11.990Z,36160.00
2023-05-20T10:10:11.941Z,28128.00
2023-05-20T10:11:11.940Z,58528.00
2023-05-20T10:12:11.926Z,101088.00
2023-05-20T10:13:11.917Z,99168.00
2023-05-20T10:14:11.950Z,90720.00
2023-05-20T10:15:11.891Z,20160.00
2023-05-20T10:16:11.943Z,91968.00
2023-05-20T10:17:11.885Z,33440.00
2023-05-20T10:18:11.868Z,60448.00
2023-05-20T10:19:11.910Z,19776.00
2023-05-20T10:20:11.899Z,85152.00
2023-05-20T10:21:11.859Z,19872.00
2023-05-20T10:22:11.823Z,20608.00
2023-05-20T10:23:11.854Z,20192.00
2023-05-20T10:24:11.819Z,22528.00
2023-05-20T10:25:11.794Z,29888.00
2023-05-20T10:26:11.786Z,26528.00
2023-05-20T10:27:11.774Z,19296.00
2023-05-20T10:28:11.750Z,17216.00
2023-05-20T10:29:11.870Z,15268.00
2023-05-20T10:30:11.753Z,14808.00
2023-05-20T10:31:11.722Z,18688.00
2023-05-20T10:32:11.806Z,19776.00
2023-05-20T10:33:11.770Z,21600.00
2023-05-20T10:34:11.732Z,31872.00
2023-05-20T10:35:11.690Z,34784.00
2023-05-20T10:36:11.681Z,42528.00
2023-05-20T10:37:11.654Z,23008.00
2023-05-20T10:38:11.726Z,19104.00
2023-05-20T10:39:11.620Z,17312.00
2023-05-20T10:40:11.649Z,20064.00
2023-05-20T10:41:11.632Z,103424.00
2023-05-20T10:42:11.585Z,111360.00
2023-05-20T10:43:11.597Z,53408.00
2023-05-20T10:44:11.581Z,40224.00
2023-05-20T10:45:11.598Z,40768.00
2023-05-20T10:46:21.643Z,22816.00
2023-05-20T10:48:11.578Z,25824.00
2023-05-20T10:49:11.661Z,42080.00
2023-05-20T10:50:12.364Z,20832.00
2023-05-20T10:51:11.496Z,51872.00
2023-05-20T10:52:11.479Z,20896.00
2023-05-20T10:53:18.819Z,27008.00
2023-05-20T10:54:11.456Z,29472.00
2023-05-20T10:55:11.451Z,22720.00
2023-05-20T10:56:11.435Z,26912.00
2023-05-20T10:57:11.448Z,47008.00
2023-05-20T10:58:11.431Z,105888.00
2023-05-20T10:59:11.452Z,108064.00
2023-05-20T11:00:11.424Z,49216.00
2023-05-20T11:01:11.491Z,68672.00
2023-05-20T11:02:11.393Z,28896.00
2023-05-20T11:03:11.437Z,80256.00
2023-05-20T11:04:11.570Z,31776.00
2023-05-20T11:05:11.372Z,98720.00
2023-05-20T11:06:11.368Z,113728.00
2023-05-20T11:07:11.354Z,87840.00
2023-05-20T11:08:24.645Z,69152.00
2023-05-20T11:09:11.307Z,22752.00
2023-05-20T11:10:11.303Z,22368.00
2023-05-20T11:11:11.287Z,27264.00
2023-05-20T11:12:11.290Z,32416.00
2023-05-20T11:13:11.290Z,112288.00
2023-05-20T11:14:11.270Z,110496.00
2023-05-20T11:15:11.263Z,108192.00
2023-05-20T11:16:11.288Z,108864.00
2023-05-20T11:17:11.278Z,93248.00
2023-05-20T11:18:11.268Z,60960.00
2023-05-20T11:19:11.272Z,21088.00
2023-05-20T11:20:11.224Z,14664.00
2023-05-20T11:21:11.224Z,13200.00
2023-05-20T11:22:11.206Z,14340.00
2023-05-20T11:23:11.213Z,20000.00
2023-05-20T11:24:11.200Z,86272.00
2023-05-20T11:25:11.183Z,100128.00
2023-05-20T11:26:11.185Z,23776.00
2023-05-20T11:27:11.170Z,22880.00
2023-05-20T11:28:11.154Z,43520.00
2023-05-20T11:29:11.209Z,62528.00
2023-05-20T11:30:11.180Z,84896.00
2023-05-20T11:31:11.136Z,42560.00
2023-05-20T11:32:11.165Z,20352.00
2023-05-20T11:33:11.167Z,15928.00
2023-05-20T11:34:11.212Z,15256.00
2023-05-20T11:35:11.106Z,16416.00
2023-05-20T11:36:26.462Z,21216.00
2023-05-20T11:37:11.114Z,41952.00
2023-05-20T11:38:11.069Z,26880.00
2023-05-20T11:39:11.069Z,30752.00
2023-05-20T11:40:11.070Z,96672.00
2023-05-20T11:41:11.063Z,94144.00
2023-05-20T11:42:11.101Z,78624.00
2023-05-20T11:43:11.036Z,51488.00
2023-05-20T11:44:11.030Z,33120.00
2023-05-20T11:45:11.027Z,28224.00
2023-05-20T11:46:11.088Z,90080.00
2023-05-20T11:47:11.030Z,87200.00
2023-05-20T11:48:11.026Z,31552.00
2023-05-20T11:49:11.021Z,71424.00
2023-05-20T11:50:11.001Z,58720.00
2023-05-20T11:51:10.989Z,36224.00
2023-05-20T11:52:11.200Z,24064.00
2023-05-20T11:53:10.967Z,19200.00
2023-05-20T11:54:10.963Z,17152.00
2023-05-20T11:55:10.970Z,16304.00
2023-05-20T11:56:10.972Z,17408.00
2023-05-20T11:57:10.952Z,17728.00
2023-05-20T11:58:10.958Z,15984.00
2023-05-20T11:59:10.953Z,15752.00
2023-05-20T12:00:10.976Z,17216.00
2023-05-20T12:01:21.529Z,18560.00
2023-05-20T12:02:10.955Z,15304.00
2023-05-20T12:03:10.937Z,14736.00
2023-05-20T12:04:11.181Z,15516.00
2023-05-20T12:05:10.910Z,16140.00
2023-05-20T12:06:10.914Z,17088.00
2023-05-20T12:07:10.856Z,16288.00
2023-05-20T12:08:10.842Z,16000.00
2023-05-20T12:09:10.852Z,16000.00
2023-05-20T12:10:10.834Z,17632.00
2023-05-20T12:11:10.816Z,44224.00
2023-05-20T12:12:10.807Z,22432.00
2023-05-20T12:13:10.789Z,26848.00
2023-05-20T12:14:10.786Z,75200.00
2023-05-20T12:15:10.805Z,62336.00
2023-05-20T12:16:10.798Z,28288.00